Time;durP1;ratioP1;P1;durP2;ratioP2;P2;SDS_P1;SDS_P2;PMS_P1;PMS_P2;Temp;Humidity;BMP_temperature;BMP_pressure;BME280_temperature;BME280_humidity;BME280_pressure;Samples;Min_cycle;Max_cycle;Signal;HPM_P1;HPM_P2
2021/10/26 00:00:47;;;;;;;0.30;0.20;;;;;;;8.37;100.00;100663.78;5035998;28;20506;-50
2021/10/26 00:03:15;;;;;;;0.30;0.20;;;;;;;8.33;100.00;100669.06;5045408;28;20455;-51
2021/10/26 00:05:41;;;;;;;0.30;0.20;;;;;;;8.35;100.00;100666.44;5040293;28;20983;-50
2021/10/26 00:08:08;;;;;;;0.73;0.73;;;;;;;8.40;100.00;100653.13;5042171;28;20509;-50
2021/10/26 00:10:35;;;;;;;0.40;0.40;;;;;;;8.45;100.00;100659.25;5046963;28;20451;-50
2021/10/26 00:13:01;;;;;;;0.37;0.30;;;;;;;8.46;100.00;100666.28;5045477;28;20451;-51
2021/10/26 00:15:28;;;;;;;0.30;0.20;;;;;;;8.47;100.00;100671.56;5040163;28;20467;-51
2021/10/26 00:17:55;;;;;;;0.67;0.67;;;;;;;8.48;100.00;100670.66;5041553;28;20451;-50
2021/10/26 00:20:21;;;;;;;0.40;0.30;;;;;;;8.48;100.00;100667.13;5047000;28;20455;-51
2021/10/26 00:22:48;;;;;;;0.40;0.20;;;;;;;8.56;100.00;100670.56;5045937;28;20454;-51
2021/10/26 00:25:14;;;;;;;3.40;1.70;;;;;;;8.57;100.00;100662.59;5039841;28;20632;-51
2021/10/26 00:27:41;;;;;;;0.40;0.30;;;;;;;8.60;100.00;100666.97;5040711;28;20983;-51
2021/10/26 00:30:08;;;;;;;0.30;0.20;;;;;;;8.65;100.00;100672.22;5047023;28;20502;-51
2021/10/26 00:32:35;;;;;;;2.33;2.33;;;;;;;8.67;100.00;100675.72;5046677;28;20474;-51
2021/10/26 00:35:02;;;;;;;0.37;0.33;;;;;;;8.69;100.00;100672.13;5027449;28;20518;-50
2021/10/26 00:37:29;;;;;;;0.40;0.40;;;;;;;8.72;100.00;100676.50;5040281;28;21040;-50
2021/10/26 00:39:56;;;;;;;0.30;0.20;;;;;;;8.76;100.00;100671.13;5046491;28;20452;-51
2021/10/26 00:42:22;;;;;;;0.30;0.20;;;;;;;8.75;100.00;100676.47;5046405;28;20493;-51
2021/10/26 00:44:49;;;;;;;4.93;0.97;;;;;;;8.79;100.00;100675.53;5040875;28;20516;-50
2021/10/26 00:47:15;;;;;;;0.40;0.30;;;;;;;8.80;100.00;100679.94;5039688;28;20496;-51
2021/10/26 00:49:42;;;;;;;0.70;0.50;;;;;;;8.83;100.00;100679.88;5045751;28;20516;-50
2021/10/26 00:52:09;;;;;;;0.80;0.80;;;;;;;8.82;100.00;100679.00;5046310;28;20826;-50
2021/10/26 00:54:36;;;;;;;0.50;0.40;;;;;;;8.87;100.00;100681.59;5040780;28;20451;-50
2021/10/26 00:57:03;;;;;;;0.30;0.20;;;;;;;8.83;100.00;100670.16;5039382;28;20495;-51
2021/10/26 00:59:29;;;;;;;0.30;0.20;;;;;;;8.83;100.00;100661.34;5045138;28;20819;-51
2021/10/26 01:01:56;;;;;;;0.30;0.20;;;;;;;8.96;100.00;100664.66;5046395;28;20486;-50
2021/10/26 01:04:22;;;;;;;0.30;0.20;;;;;;;8.94;100.00;100664.69;5040448;28;21023;-51
2021/10/26 01:06:49;;;;;;;0.30;0.20;;;;;;;8.93;100.00;100670.03;5038467;28;20995;-51
2021/10/26 01:09:17;;;;;;;0.30;0.30;;;;;;;8.96;100.00;100678.78;5045274;28;20458;-51
2021/10/26 01:11:44;;;;;;;0.40;0.30;;;;;;;8.98;100.00;100673.47;5046294;28;20566;-51
2021/10/26 01:14:11;;;;;;;0.80;0.80;;;;;;;9.03;100.00;100674.25;5040486;28;20447;-51
2021/10/26 01:16:38;;;;;;;0.30;0.20;;;;;;;8.96;100.00;100673.50;5039039;28;20487;-51
2021/10/26 01:19:09;;;;;;;0.30;0.20;;;;;;;9.04;100.00;100671.56;5044587;28;20447;-50
2021/10/26 01:21:35;;;;;;;0.37;0.20;;;;;;;9.16;100.00;100663.44;5046018;28;21190;-50
2021/10/26 01:24:02;;;;;;;0.40;0.33;;;;;;;9.14;100.00;100667.88;5032601;28;20486;-51
2021/10/26 01:26:32;;;;;;;0.30;0.20;;;;;;;9.11;100.00;100664.41;5046021;28;20517;-50
2021/10/26 01:28:59;;;;;;;31.90;2.93;;;;;;;9.12;100.00;100666.16;5041892;28;20875;-50
2021/10/26 01:31:26;;;;;;;0.57;0.57;;;;;;;9.15;100.00;100661.69;5038912;28;20456;-50
2021/10/26 01:33:53;;;;;;;1.13;0.77;;;;;;;9.12;100.00;100667.03;5041762;28;20443;-50
2021/10/26 01:36:22;;;;;;;0.40;0.30;;;;;;;9.10;100.00;100668.84;5045994;28;20561;-50
2021/10/26 01:38:49;;;;;;;0.30;0.20;;;;;;;9.05;100.00;100665.41;5043822;28;20451;-50
2021/10/26 01:41:16;;;;;;;0.30;0.20;;;;;;;9.06;100.00;100680.41;5038857;28;20826;-50
2021/10/26 01:43:42;;;;;;;2.30;0.70;;;;;;;9.07;100.00;100681.28;5040777;28;20452;-50
2021/10/26 01:46:09;;;;;;;0.30;0.30;;;;;;;9.08;100.00;100683.03;5045533;28;20553;-50
2021/10/26 01:48:36;;;;;;;2.67;1.63;;;;;;;9.15;100.00;100674.94;5043900;28;20483;-50
2021/10/26 01:51:03;;;;;;;6.33;0.97;;;;;;;9.04;100.00;100673.34;5038667;28;20998;-50
2021/10/26 01:53:30;;;;;;;2.10;0.60;;;;;;;9.06;100.00;100666.28;5039688;28;20474;-50
2021/10/26 01:55:57;;;;;;;0.30;0.20;;;;;;;9.16;100.00;100673.16;5045337;28;20527;-50
2021/10/26 01:58:23;;;;;;;0.40;0.30;;;;;;;9.22;100.00;100666.91;5044363;28;20451;-50
2021/10/26 02:00:50;;;;;;;0.30;0.20;;;;;;;9.33;100.00;100667.59;5038350;28;20450;-50
2021/10/26 02:03:17;;;;;;;0.30;0.20;;;;;;;9.39;100.00;100667.47;5040124;28;20505;-50
2021/10/26 02:05:44;;;;;;;0.90;0.90;;;;;;;9.39;100.00;100671.00;5045497;28;20533;-50
2021/10/26 02:08:10;;;;;;;0.30;0.20;;;;;;;9.35;100.00;100679.03;5044395;28;20446;-50
2021/10/26 02:10:37;;;;;;;0.30;0.20;;;;;;;9.41;100.00;100679.81;5038596;28;20963;-50
2021/10/26 02:13:04;;;;;;;0.30;0.20;;;;;;;9.40;100.00;100677.19;5039712;28;20815;-50
2021/10/26 02:15:30;;;;;;;0.30;0.20;;;;;;;9.34;100.00;100680.81;5045109;28;20499;-50
2021/10/26 02:17:57;;;;;;;0.33;0.23;;;;;;;9.39;100.00;100678.97;5045175;28;20518;-50
2021/10/26 02:20:24;;;;;;;0.30;0.20;;;;;;;9.39;100.00;100680.75;5042613;28;20450;-50
2021/10/26 02:22:50;;;;;;;0.30;0.20;;;;;;;9.43;100.00;100688.59;5043748;28;20529;-50
2021/10/26 02:25:17;;;;;;;0.40;0.40;;;;;;;9.45;100.00;100684.13;5042197;28;20517;-50
2021/10/26 02:27:43;;;;;;;0.30;0.20;;;;;;;9.45;100.00;100691.22;5043742;28;20817;-50
2021/10/26 02:30:10;;;;;;;0.30;0.20;;;;;;;9.48;100.00;100685.91;5049331;28;20501;-50
2021/10/26 02:32:37;;;;;;;0.30;0.20;;;;;;;9.54;100.00;100693.72;5047809;28;20481;-50
2021/10/26 02:35:04;;;;;;;0.40;0.40;;;;;;;9.55;100.00;100692.81;5042984;28;20446;-50
2021/10/26 02:37:31;;;;;;;0.30;0.20;;;;;;;9.57;100.00;100698.09;5042208;28;20490;-50
2021/10/26 02:39:58;;;;;;;0.30;0.20;;;;;;;9.62;100.00;100698.91;5048373;28;20454;-50
2021/10/26 02:42:24;;;;;;;0.30;0.20;;;;;;;9.59;100.00;100694.50;5049091;28;20454;-50
2021/10/26 02:44:51;;;;;;;0.30;0.20;;;;;;;9.59;100.00;100691.84;5043215;28;20481;-49
2021/10/26 02:47:18;;;;;;;0.30;0.20;;;;;;;9.59;100.00;100697.16;5042213;28;20447;-50
2021/10/26 02:49:44;;;;;;;0.77;0.77;;;;;;;9.62;100.00;100699.78;5048064;28;20451;-50
2021/10/26 02:52:11;;;;;;;0.30;0.20;;;;;;;9.60;100.00;100700.72;5048836;28;20457;-50
2021/10/26 02:54:38;;;;;;;6.60;2.30;;;;;;;9.64;100.00;100697.97;5043061;28;20447;-50
2021/10/26 02:57:04;;;;;;;0.30;0.20;;;;;;;9.66;100.00;100692.63;5041396;28;21058;-50
2021/10/26 02:59:31;;;;;;;0.30;0.20;;;;;;;9.69;100.00;100696.09;5047578;28;20486;-49
2021/10/26 03:01:59;;;;;;;0.30;0.20;;;;;;;9.69;100.00;100688.13;5048736;28;20451;-49
2021/10/26 03:04:26;;;;;;;0.30;0.23;;;;;;;9.67;100.00;100689.06;5043530;28;20447;-49
2021/10/26 03:06:53;;;;;;;0.30;0.20;;;;;;;9.76;100.00;100691.56;5041547;28;20467;-50
2021/10/26 03:09:19;;;;;;;0.30;0.20;;;;;;;9.90;100.00;100688.66;5046582;28;20455;-50
2021/10/26 03:11:46;;;;;;;0.30;0.20;;;;;;;9.94;100.00;100707.13;5048008;28;20867;-50
2021/10/26 03:14:12;;;;;;;5.47;3.80;;;;;;;9.93;100.00;100705.41;5044244;28;20802;-49
2021/10/26 03:16:39;;;;;;;2.07;1.40;;;;;;;9.86;100.00;100700.22;5052389;28;20486;-50
2021/10/26 03:19:06;;;;;;;0.30;0.20;;;;;;;9.75;100.00;100705.75;5044048;28;20459;-50
2021/10/26 03:21:34;;;;;;;1.07;1.07;;;;;;;9.74;100.00;100698.69;5041346;28;20485;-50
2021/10/26 03:24:01;;;;;;;0.30;0.20;;;;;;;9.72;100.00;100705.78;5045312;28;20482;-49
2021/10/26 03:26:28;;;;;;;0.30;0.20;;;;;;;9.68;100.00;100710.28;5048021;28;20471;-50
2021/10/26 03:28:55;;;;;;;0.30;0.20;;;;;;;9.63;100.00;100705.97;5044034;28;20454;-50
2021/10/26 03:31:22;;;;;;;0.30;0.20;;;;;;;9.61;100.00;100715.75;5041288;28;20508;-50
2021/10/26 03:33:49;;;;;;;0.40;0.30;;;;;;;9.65;100.00;100720.97;5044578;28;20458;-47
2021/10/26 03:36:15;;;;;;;0.40;0.40;;;;;;;9.61;100.00;100724.59;5047899;28;20832;-48
2021/10/26 03:38:43;;;;;;;0.57;0.20;;;;;;;9.59;100.00;100721.03;5044942;28;21015;-47
2021/10/26 03:41:11;;;;;;;8.03;2.33;;;;;;;9.57;100.00;100717.56;5041119;28;20537;-47
2021/10/26 03:43:38;;;;;;;0.30;0.20;;;;;;;9.56;100.00;100720.22;5043842;28;21278;-48
2021/10/26 03:46:05;;;;;;;0.30;0.20;;;;;;;9.58;100.00;100724.59;5048087;28;20468;-47
2021/10/26 03:48:32;;;;;;;0.93;0.93;;;;;;;9.64;100.00;100721.00;5045766;28;20968;-47
2021/10/26 03:50:58;;;;;;;0.40;0.40;;;;;;;9.65;100.00;100726.28;5036372;28;20448;-48
2021/10/26 03:53:27;;;;;;;0.83;0.63;;;;;;;9.75;100.00;100733.16;5043342;28;20473;-48
2021/10/26 03:55:54;;;;;;;0.30;0.20;;;;;;;9.78;100.00;100730.44;5048067;28;20494;-48
2021/10/26 03:58:21;;;;;;;0.30;0.20;;;;;;;9.78;100.00;100732.22;5046393;28;20532;-47
2021/10/26 04:00:48;;;;;;;0.30;0.20;;;;;;;9.77;100.00;100730.50;5023283;28;20483;-47
2021/10/26 04:03:14;;;;;;;0.30;0.20;;;;;;;9.72;100.00;100729.66;5042149;28;20451;-47
2021/10/26 04:10:51;;;;;;;0.30;0.20;;;;;;;9.84;100.00;100726.78;5042025;28;20505;-47
2021/10/26 04:13:20;;;;;;;0.30;0.20;;;;;;;9.91;100.00;100739.06;5040939;28;20497;-48
2021/10/26 04:15:47;;;;;;;0.53;0.53;;;;;;;9.94;100.00;100731.03;5045431;28;20472;-47
2021/10/26 04:18:14;;;;;;;0.30;0.20;;;;;;;10.01;100.00;100739.78;5047082;28;20545;-47
2021/10/26 04:20:42;;;;;;;0.30;0.20;;;;;;;10.15;100.00;100747.50;5043075;28;20943;-48
2021/10/26 04:23:09;;;;;;;0.30;0.20;;;;;;;10.11;100.00;100744.00;5040270;28;20448;-48
2021/10/26 04:25:35;;;;;;;0.30;0.20;;;;;;;10.13;100.00;100739.50;5043073;28;20489;-47
2021/10/26 04:28:03;;;;;;;0.30;0.20;;;;;;;10.18;100.00;100737.66;5040614;28;20444;-48
2021/10/26 04:30:33;;;;;;;0.30;0.20;;;;;;;10.17;100.00;100743.00;5044568;28;20483;-48
2021/10/26 04:33:02;;;;;;;0.30;0.20;;;;;;;10.17;100.00;100741.22;5046969;28;20995;-48
2021/10/26 04:35:29;;;;;;;0.40;0.30;;;;;;;10.27;100.00;100748.13;5044303;28;20474;-48
2021/10/26 04:37:56;;;;;;;0.30;0.20;;;;;;;10.36;100.00;100745.28;5040105;28;20490;-48
2021/10/26 04:40:23;;;;;;;0.30;0.20;;;;;;;10.47;100.00;100744.22;5042352;28;20451;-47
2021/10/26 04:42:49;;;;;;;2.23;1.07;;;;;;;10.29;100.00;100762.28;5046485;28;20859;-47
2021/10/26 04:45:16;;;;;;;0.30;0.20;;;;;;;10.26;100.00;100751.69;5044150;28;20585;-48
2021/10/26 04:47:44;;;;;;;0.63;0.63;;;;;;;10.33;100.00;100756.00;5039902;28;20458;-48
2021/10/26 04:50:12;;;;;;;0.30;0.20;;;;;;;10.31;100.00;100760.47;5041991;28;21015;-47
2021/10/26 04:52:40;;;;;;;0.33;0.23;;;;;;;10.39;100.00;100760.28;5046332;28;20884;-48
2021/10/26 04:55:08;;;;;;;0.30;0.20;;;;;;;10.33;100.00;100761.31;5045216;28;20861;-47
2021/10/26 04:57:35;;;;;;;0.40;0.30;;;;;;;10.38;100.00;100770.03;5039614;28;20544;-47
2021/10/26 05:00:05;;;;;;;0.30;0.20;;;;;;;10.38;100.00;100767.38;5040676;28;20505;-48
2021/10/26 05:02:31;;;;;;;0.30;0.20;;;;;;;10.37;100.00;100764.75;5046401;28;20471;-47
2021/10/26 05:04:58;;;;;;;0.90;0.90;;;;;;;10.32;100.00;100769.31;5028051;28;20451;-47
2021/10/26 05:07:25;;;;;;;0.30;0.20;;;;;;;10.27;100.00;100760.53;5039568;28;20505;-48
2021/10/26 05:09:51;;;;;;;0.30;0.20;;;;;;;10.29;100.00;100761.41;5040175;28;20448;-48
2021/10/26 05:12:18;;;;;;;0.43;0.40;;;;;;;10.31;100.00;100765.78;5046041;28;20592;-47
2021/10/26 05:14:44;;;;;;;0.30;0.20;;;;;;;10.30;100.00;100765.81;5045656;28;20451;-48
2021/10/26 05:17:17;;;;;;;0.30;0.20;;;;;;;10.41;100.00;100766.44;5039395;28;20545;-47
2021/10/26 05:19:46;;;;;;;0.30;0.20;;;;;;;10.37;100.00;100778.94;5039427;28;20471;-47
2021/10/26 05:22:13;;;;;;;0.30;0.20;;;;;;;10.37;100.00;100781.59;5044628;28;20459;-48
2021/10/26 05:24:40;;;;;;;0.53;0.53;;;;;;;10.41;100.00;100782.38;5036377;28;20459;-48
2021/10/26 05:27:06;;;;;;;0.30;0.20;;;;;;;10.41;100.00;100784.19;5043883;28;20882;-48
2021/10/26 05:29:33;;;;;;;0.30;0.20;;;;;;;10.39;100.00;100785.09;5034403;28;20509;-48
2021/10/26 05:32:00;;;;;;;1.23;1.23;;;;;;;10.45;100.00;100785.88;5044197;28;20456;-48
2021/10/26 05:34:26;;;;;;;0.30;0.20;;;;;;;10.39;100.00;100784.22;5045757;28;20455;-48
2021/10/26 05:36:53;;;;;;;0.40;0.30;;;;;;;10.41;100.00;100790.38;5041015;28;20839;-48
2021/10/26 05:39:19;;;;;;;0.30;0.30;;;;;;;10.34;100.00;100779.00;5038868;28;20493;-49
2021/10/26 05:41:46;;;;;;;1.23;1.23;;;;;;;10.37;100.00;100786.03;5051858;28;20481;-48
2021/10/26 05:44:13;;;;;;;0.30;0.20;;;;;;;10.32;100.00;100794.09;5038915;28;20573;-48
2021/10/26 05:46:40;;;;;;;0.30;0.20;;;;;;;10.32;100.00;100786.13;5043453;28;20503;-47
2021/10/26 05:49:06;;;;;;;0.30;0.20;;;;;;;10.27;100.00;100787.09;5045676;28;20886;-47
2021/10/26 05:51:33;;;;;;;0.30;0.20;;;;;;;10.34;100.00;100802.03;5041801;28;20500;-48
2021/10/26 05:53:59;;;;;;;0.30;0.20;;;;;;;10.38;100.00;100801.94;5038644;28;20499;-48
2021/10/26 05:56:29;;;;;;;0.93;0.93;;;;;;;10.41;100.00;100811.63;5041941;28;20526;-48
2021/10/26 05:58:56;;;;;;;0.30;0.20;;;;;;;10.47;100.00;100813.31;5045571;28;20537;-47
2021/10/26 06:01:23;;;;;;;0.30;0.20;;;;;;;10.42;100.00;100815.19;5042756;28;20481;-48
2021/10/26 06:03:50;;;;;;;0.30;0.20;;;;;;;10.51;100.00;100812.34;5038639;28;20446;-48
2021/10/26 06:06:17;;;;;;;0.30;0.20;;;;;;;10.60;100.00;100814.81;5041012;28;20468;-48
2021/10/26 06:08:45;;;;;;;0.30;0.20;;;;;;;10.62;100.00;100811.22;5045234;28;20866;-48
2021/10/26 06:11:13;;;;;;;0.30;0.20;;;;;;;10.70;100.00;100807.53;5043967;28;20481;-48
2021/10/26 06:13:46;;;;;;;0.30;0.20;;;;;;;10.73;100.00;100818.09;5038769;28;20482;-48
2021/10/26 06:16:12;;;;;;;0.30;0.20;;;;;;;10.80;100.00;100817.03;5039447;28;20472;-48
2021/10/26 06:18:39;;;;;;;0.30;0.30;;;;;;;10.73;100.00;100813.66;5045320;28;20523;-48
2021/10/26 06:21:05;;;;;;;0.30;0.20;;;;;;;10.71;100.00;100817.25;5044748;28;20454;-48
2021/10/26 06:23:32;;;;;;;0.30;0.20;;;;;;;10.73;100.00;100812.78;5035117;28;20949;-48
2021/10/26 06:25:59;;;;;;;0.30;0.20;;;;;;;10.73;100.00;100816.31;5044587;28;20532;-48
2021/10/26 06:28:27;;;;;;;0.30;0.20;;;;;;;10.78;100.00;100818.88;5038088;28;20474;-48
2021/10/26 06:30:54;;;;;;;0.40;0.40;;;;;;;10.80;100.00;100815.25;5039233;28;20448;-48
2021/10/26 06:33:20;;;;;;;0.30;0.30;;;;;;;10.84;100.00;100811.66;5051663;28;20438;-48
2021/10/26 06:35:47;;;;;;;0.50;0.50;;;;;;;10.85;100.00;100815.19;5021008;28;20483;-49
2021/10/26 06:38:15;;;;;;;0.30;0.20;;;;;;;10.89;100.00;100816.88;5045220;28;20550;-48
2021/10/26 06:40:41;;;;;;;0.60;0.60;;;;;;;10.83;100.00;100820.53;5044957;28;20451;-48
2021/10/26 06:43:08;;;;;;;0.47;0.47;;;;;;;10.80;100.00;100820.59;5044667;28;20452;-48
2021/10/26 06:45:35;;;;;;;0.30;0.20;;;;;;;10.83;100.00;100827.66;5045313;28;20474;-48
2021/10/26 06:48:01;;;;;;;0.30;0.20;;;;;;;10.76;100.00;100829.53;5039201;28;20446;-48
2021/10/26 06:50:30;;;;;;;0.30;0.20;;;;;;;10.86;100.00;100833.78;5037897;28;20455;-48
2021/10/26 06:52:57;;;;;;;0.30;0.20;;;;;;;10.83;100.00;100819.66;5044176;28;20454;-48
2021/10/26 06:55:24;;;;;;;0.40;0.30;;;;;;;10.81;100.00;100834.75;5044715;28;20505;-48
2021/10/26 06:57:50;;;;;;;0.30;0.20;;;;;;;10.80;100.00;100831.22;5039733;28;21065;-48
2021/10/26 07:00:18;;;;;;;0.30;0.20;;;;;;;10.78;100.00;100837.47;5038285;28;20498;-48
2021/10/26 07:02:52;;;;;;;1.00;1.00;;;;;;;10.75;100.00;100833.09;5043345;28;20497;-48
2021/10/26 07:05:24;;;;;;;0.30;0.20;;;;;;;10.78;100.00;100834.81;5047584;28;20892;-48
2021/10/26 07:07:51;;;;;;;1.13;0.83;;;;;;;10.78;100.00;100841.00;5045164;28;20561;-48
2021/10/26 07:10:19;;;;;;;2.10;1.47;;;;;;;10.91;100.00;100841.63;5041719;28;20509;-48
2021/10/26 07:12:46;;;;;;;0.30;0.20;;;;;;;10.87;100.00;100846.16;5045070;28;20451;-48
2021/10/26 07:15:14;;;;;;;0.30;0.20;;;;;;;10.88;100.00;100847.91;5048629;28;20468;-48
2021/10/26 07:17:42;;;;;;;0.40;0.37;;;;;;;10.94;100.00;100860.19;5045612;28;21061;-48
2021/10/26 07:20:13;;;;;;;0.30;0.20;;;;;;;11.03;100.00;100867.97;5041903;28;20447;-48
2021/10/26 07:22:41;;;;;;;0.67;0.67;;;;;;;11.09;100.00;100874.94;5043525;28;20486;-48
2021/10/26 07:25:10;;;;;;;0.30;0.20;;;;;;;11.23;100.00;100875.53;5042623;28;20466;-48
2021/10/26 07:27:39;;;;;;;0.40;0.40;;;;;;;11.23;100.00;100894.16;5043345;28;20440;-50
2021/10/26 07:30:08;;;;;;;0.40;0.30;;;;;;;11.35;100.00;100893.88;5048287;28;20444;-51
2021/10/26 07:32:35;;;;;;;0.30;0.20;;;;;;;11.39;100.00;100892.94;5047994;28;20500;-50
2021/10/26 07:35:02;;;;;;;1.57;1.57;;;;;;;11.61;100.00;100889.78;5028618;28;20493;-51
2021/10/26 07:37:38;;;;;;;0.40;0.40;;;;;;;11.64;100.00;100887.03;5041113;28;21008;-50
2021/10/26 07:40:06;;;;;;;0.30;0.20;;;;;;;11.79;100.00;100889.38;5047282;28;20443;-51
2021/10/26 07:42:32;;;;;;;0.30;0.30;;;;;;;11.89;100.00;100890.91;5048808;28;20485;-51
2021/10/26 07:44:59;;;;;;;0.40;0.30;;;;;;;12.03;100.00;100895.88;5043658;28;20455;-52
2021/10/26 07:47:26;;;;;;;0.30;0.30;;;;;;;12.11;100.00;100900.13;5040884;28;20452;-51
2021/10/26 07:49:55;;;;;;;0.60;0.60;;;;;;;12.18;100.00;100897.28;5045489;28;20448;-52
2021/10/26 07:52:22;;;;;;;0.30;0.20;;;;;;;12.22;100.00;100896.31;5047436;28;20451;-52
2021/10/26 07:54:55;;;;;;;0.30;0.20;;;;;;;12.27;100.00;100900.59;5043670;28;20446;-51
2021/10/26 07:57:26;;;;;;;0.30;0.20;;;;;;;12.45;100.00;100900.13;5040898;28;20451;-51
2021/10/26 07:59:54;;;;;;;0.30;0.20;;;;;;;12.47;100.00;100902.72;5043646;28;20480;-52
2021/10/26 08:02:22;;;;;;;0.30;0.20;;;;;;;12.55;100.00;100899.88;5047303;28;20876;-51
2021/10/26 08:04:49;;;;;;;0.30;0.20;;;;;;;12.54;100.00;100904.34;5045206;28;20451;-52
2021/10/26 08:07:17;;;;;;;0.30;0.20;;;;;;;12.52;100.00;100918.63;5040581;28;20446;-51
2021/10/26 08:09:45;;;;;;;0.30;0.20;;;;;;;12.72;100.00;100909.16;5042251;28;21087;-51
2021/10/26 08:12:11;;;;;;;0.30;0.20;;;;;;;12.90;100.00;100913.13;5047239;28;21022;-52
2021/10/26 08:14:38;;;;;;;0.30;0.20;;;;;;;12.92;100.00;100913.97;5046022;28;20501;-51
2021/10/26 08:17:05;;;;;;;0.30;0.20;;;;;;;12.96;100.00;100912.94;5040309;28;20888;-52
2021/10/26 08:19:32;;;;;;;0.30;0.20;;;;;;;12.95;100.00;100908.53;5041672;28;20549;-51
2021/10/26 08:21:59;;;;;;;0.60;0.60;;;;;;;12.89;100.00;100911.38;5047058;28;20525;-51
2021/10/26 08:24:30;;;;;;;0.30;0.20;;;;;;;12.88;100.00;100909.59;5035411;28;20452;-52
2021/10/26 08:26:58;;;;;;;0.30;0.20;;;;;;;12.99;100.00;100909.31;5047139;28;20483;-51
2021/10/26 08:37:48;;;;;;;0.30;0.30;;;;;;;13.31;100.00;100903.09;5039973;28;20485;-52
2021/10/26 08:40:17;;;;;;;0.30;0.20;;;;;;;13.48;100.00;100899.91;5043811;28;20451;-51
2021/10/26 08:42:48;;;;;;;0.30;0.20;;;;;;;13.48;100.00;100894.56;5046428;28;20455;-51
2021/10/26 08:45:19;;;;;;;0.30;0.20;;;;;;;13.56;100.00;100897.84;5044185;28;20509;-51
2021/10/26 08:47:46;;;;;;;0.30;0.20;;;;;;;13.56;100.00;100895.19;5040123;28;20449;-51
2021/10/26 08:50:13;;;;;;;0.30;0.30;;;;;;;13.46;100.00;100899.06;5041548;28;20881;-51
2021/10/26 08:52:42;;;;;;;0.30;0.20;;;;;;;13.60;100.00;100892.38;5046484;28;20464;-52
2021/10/26 08:55:09;;;;;;;0.30;0.20;;;;;;;13.70;100.00;100895.63;5044961;28;20485;-51
2021/10/26 08:57:36;;;;;;;0.30;0.20;;;;;;;13.68;100.00;100894.78;5039236;28;20513;-51
2021/10/26 09:00:06;;;;;;;0.30;0.20;;;;;;;13.90;100.00;100893.19;5040627;28;20451;-52
2021/10/26 09:02:38;;;;;;;0.30;0.20;;;;;;;14.00;100.00;100883.09;5046420;28;20501;-51
2021/10/26 09:05:10;;;;;;;0.70;0.70;;;;;;;14.12;100.00;100892.50;5046350;28;20451;-52
2021/10/26 09:07:37;;;;;;;0.37;0.30;;;;;;;14.09;100.00;100882.75;5027914;28;20940;-52
2021/10/26 09:10:15;;;;;;;0.30;0.20;;;;;;;14.20;100.00;100879.72;5039145;28;20888;-52
2021/10/26 09:17:58;;;;;;;0.30;0.30;;;;;;;14.27;100.00;100881.28;5045055;28;20478;-52
2021/10/26 09:20:31;;;;;;;0.40;0.30;;;;;;;14.40;100.00;100893.31;5038896;28;20447;-52
2021/10/26 09:23:00;;;;;;;0.30;0.20;;;;;;;14.47;100.00;100889.50;5039275;28;20452;-52
2021/10/26 09:25:39;;;;;;;0.30;0.20;;;;;;;14.58;100.00;100896.28;5040949;28;20483;-52
2021/10/26 09:28:19;;;;;;;0.30;0.20;;;;;;;14.57;100.00;100895.41;5038578;28;20443;-51
2021/10/26 09:31:06;;;;;;;0.30;0.20;;;;;;;14.79;100.00;100901.72;5041053;28;20447;-51
2021/10/26 09:33:36;;;;;;;0.30;0.20;;;;;;;14.84;100.00;100904.25;5028532;28;20443;-52
2021/10/26 09:36:25;;;;;;;0.30;0.20;;;;;;;15.10;100.00;100901.50;5050523;28;20525;-52
2021/10/26 09:39:13;;;;;;;0.30;0.20;;;;;;;14.97;100.00;100902.00;5043821;28;20838;-51
2021/10/26 09:41:55;;;;;;;0.30;0.20;;;;;;;14.68;100.00;100909.31;5051865;28;21027;-51
2021/10/26 09:44:25;;;;;;;0.30;0.20;;;;;;;14.83;100.00;100913.22;5038868;28;20462;-51
2021/10/26 09:47:17;;;;;;;0.30;0.20;;;;;;;14.87;100.00;100911.31;5042034;28;20518;-52
2021/10/26 09:49:49;;;;;;;0.30;0.20;;;;;;;15.14;100.00;100918.31;5039398;28;20915;-51
2021/10/26 09:52:30;;;;;;;0.30;0.20;;;;;;;15.11;100.00;100913.09;5038613;28;20447;-51
2021/10/26 09:55:15;;;;;;;0.30;0.20;;;;;;;15.34;98.52;100910.41;5046940;28;20443;-51
2021/10/26 09:57:49;;;;;;;0.30;0.20;;;;;;;15.29;100.00;100916.88;5038632;28;20446;-50
2021/10/26 10:00:30;;;;;;;0.30;0.20;;;;;;;15.40;100.00;100910.19;5038658;28;20950;-51
2021/10/26 10:03:02;;;;;;;0.40;0.30;;;;;;;15.42;99.05;100912.78;5042730;28;20928;-51
2021/10/26 10:05:31;;;;;;;0.30;0.20;;;;;;;15.58;99.09;100913.06;5045318;28;20996;-52
2021/10/26 10:07:58;;;;;;;0.30;0.20;;;;;;;15.60;98.00;100908.53;5042326;28;20443;-52
2021/10/26 10:10:40;;;;;;;0.30;0.20;;;;;;;15.57;97.43;100912.19;5038569;28;20508;-51
2021/10/26 10:13:07;;;;;;;0.30;0.20;;;;;;;15.86;96.20;100907.50;5039375;28;20937;-52
2021/10/26 10:15:35;;;;;;;0.43;0.40;;;;;;;15.51;96.05;100916.94;5045096;28;20468;-51
2021/10/26 10:18:06;;;;;;;0.30;0.20;;;;;;;15.61;96.91;100921.88;5045114;28;20455;-52
2021/10/26 10:20:34;;;;;;;0.30;0.20;;;;;;;15.63;97.10;100914.69;5026103;28;20443;-51
2021/10/26 10:23:01;;;;;;;0.30;0.30;;;;;;;15.64;96.73;100913.75;5038187;28;20455;-51
2021/10/26 10:25:29;;;;;;;0.30;0.20;;;;;;;15.46;95.19;100913.53;5040008;28;20461;-52
2021/10/26 10:27:56;;;;;;;0.30;0.20;;;;;;;15.25;95.86;100909.91;5038519;28;20443;-51
2021/10/26 10:30:23;;;;;;;0.30;0.20;;;;;;;15.43;96.29;100906.50;5044076;28;20481;-52
2021/10/26 10:32:51;;;;;;;0.30;0.20;;;;;;;15.49;96.01;100910.72;5044396;28;20485;-52
2021/10/26 10:35:18;;;;;;;0.30;0.20;;;;;;;15.28;95.96;100907.09;5040558;28;20470;-52
2021/10/26 10:37:49;;;;;;;0.30;0.20;;;;;;;15.28;96.73;100899.94;5038122;28;20483;-52
2021/10/26 10:40:22;;;;;;;0.30;0.20;;;;;;;15.35;96.02;100896.09;5044557;28;20553;-52
2021/10/26 10:42:51;;;;;;;0.30;0.20;;;;;;;15.34;96.60;100896.13;5048789;28;20953;-52
2021/10/26 10:45:34;;;;;;;0.30;0.20;;;;;;;15.35;96.13;100898.78;5046859;28;20471;-52
2021/10/26 10:48:26;;;;;;;0.30;0.20;;;;;;;15.40;95.36;100895.91;5028754;28;20451;-51
2021/10/26 10:51:11;;;;;;;0.30;0.20;;;;;;;15.52;94.36;100898.13;5042076;28;20497;-52
2021/10/26 10:53:40;;;;;;;0.30;0.20;;;;;;;15.40;94.01;100895.91;5042784;28;20452;-51
2021/10/26 10:56:22;;;;;;;0.43;0.40;;;;;;;15.55;93.50;100900.66;5048430;28;20849;-52
2021/10/26 10:58:49;;;;;;;0.30;0.20;;;;;;;15.76;93.26;100899.00;5048946;28;20529;-52
2021/10/26 11:01:21;;;;;;;0.30;0.20;;;;;;;15.79;92.88;100893.50;5044005;28;20956;-52
2021/10/26 11:03:49;;;;;;;0.30;0.20;;;;;;;15.77;92.10;100899.88;5042037;28;20454;-52
2021/10/26 11:06:42;;;;;;;0.30;0.20;;;;;;;15.89;92.89;100899.34;5045800;28;20854;-51
2021/10/26 11:09:36;;;;;;;0.30;0.20;;;;;;;15.83;93.58;100888.88;5038250;28;20456;-50
2021/10/26 11:12:16;;;;;;;0.30;0.20;;;;;;;15.96;90.68;100882.06;5038880;28;20458;-52
2021/10/26 11:14:48;;;;;;;0.30;0.20;;;;;;;16.02;90.73;100881.81;5042694;28;20991;-51
2021/10/26 11:17:36;;;;;;;0.30;0.20;;;;;;;16.06;89.30;100890.63;5048093;28;20502;-51
2021/10/26 11:20:23;;;;;;;0.30;0.20;;;;;;;16.05;87.70;100892.44;5048187;28;20487;-51
2021/10/26 11:22:53;;;;;;;0.30;0.20;;;;;;;16.15;87.58;100885.72;5047625;28;20849;-51
2021/10/26 11:25:23;;;;;;;0.30;0.20;;;;;;;16.26;87.74;100888.84;5041160;28;20482;-51
2021/10/26 11:27:52;;;;;;;0.57;0.57;;;;;;;16.16;87.58;100892.84;5041608;28;20434;-51
2021/10/26 11:30:28;;;;;;;0.30;0.20;;;;;;;16.22;87.38;100895.28;5029045;28;20515;-51
2021/10/26 11:33:10;;;;;;;0.30;0.20;;;;;;;16.18;87.45;100899.03;5042413;28;20497;-51
2021/10/26 11:35:46;;;;;;;0.30;0.20;;;;;;;16.02;89.09;100894.34;5054714;28;20461;-51
2021/10/26 11:38:14;;;;;;;2.27;2.10;;;;;;;15.98;89.21;100901.66;5040840;28;20939;-52
2021/10/26 11:40:59;;;;;;;0.30;0.20;;;;;;;15.92;88.01;100897.44;5041854;28;20482;-51
2021/10/26 11:43:46;;;;;;;0.30;0.20;;;;;;;15.79;88.91;100898.00;5033056;28;20443;-50
2021/10/26 11:46:29;;;;;;;0.30;0.20;;;;;;;15.59;90.34;100909.44;5041881;28;20462;-51
2021/10/26 11:49:05;;;;;;;0.30;0.20;;;;;;;15.35;90.81;100897.88;5041880;28;20853;-51